Time;durP1;ratioP1;P1;durP2;ratioP2;P2;SDS_P1;SDS_P2;PMS_P1;PMS_P2;Temp;Humidity;BMP_temperature;BMP_pressure;BME280_temperature;BME280_humidity;BME280_pressure;Samples;Min_cycle;Max_cycle;Signal;HPM_P1;HPM_P2
2021/05/11 00:02:13;;;;;;;1999.90;999.90;;;16.30;99.90;;;;;;5035923;28;20570;-77
2021/05/11 00:04:39;;;;;;;1999.90;999.90;;;16.30;99.90;;;;;;5035802;28;20645;-78
2021/05/11 00:07:05;;;;;;;1999.90;999.90;;;16.30;99.90;;;;;;5035257;28;20183;-77
2021/05/11 00:09:30;;;;;;;1999.90;999.90;;;16.30;99.90;;;;;;5035699;28;20616;-77
2021/05/11 00:11:56;;;;;;;1999.90;999.90;;;16.30;99.90;;;;;;5035596;28;20487;-77
2021/05/11 00:14:22;;;;;;;1999.90;999.90;;;16.20;99.90;;;;;;5035318;28;20252;-77
2021/05/11 00:16:47;;;;;;;1999.90;999.90;;;16.10;99.90;;;;;;5035049;28;20223;-77
2021/05/11 00:19:15;;;;;;;1999.90;999.90;;;16.10;99.90;;;;;;5035276;28;20172;-78
2021/05/11 00:21:40;;;;;;;1999.90;999.90;;;16.10;99.90;;;;;;5017575;28;20172;-77
2021/05/11 00:24:07;;;;;;;1999.90;999.90;;;16.10;99.90;;;;;;5035990;28;20462;-77
2021/05/11 00:26:38;;;;;;;1999.90;999.90;;;16.10;99.90;;;;;;5036372;28;20167;-77
2021/05/11 00:29:04;;;;;;;1999.90;999.90;;;16.10;99.90;;;;;;5036124;28;20416;-77
2021/05/11 00:31:30;;;;;;;1999.90;999.90;;;16.10;99.90;;;;;;5037794;28;20399;-80
2021/05/11 00:33:57;;;;;;;1999.90;999.90;;;16.10;99.90;;;;;;5038946;28;20460;-78
2021/05/11 00:36:23;;;;;;;1999.90;999.90;;;16.00;99.90;;;;;;5039551;28;20849;-78
2021/05/11 00:38:49;;;;;;;1999.90;999.90;;;16.00;99.90;;;;;;5039035;28;20427;-78
2021/05/11 00:41:14;;;;;;;1999.90;999.90;;;15.90;99.90;;;;;;5039238;28;20430;-80
2021/05/11 00:43:44;;;;;;;1999.90;999.90;;;15.80;99.90;;;;;;5039163;28;20168;-80
2021/05/11 00:46:12;;;;;;;1999.90;999.90;;;15.80;99.90;;;;;;5038664;28;20150;-80
2021/05/11 00:48:38;;;;;;;1999.90;999.90;;;15.80;99.90;;;;;;5039360;28;20426;-80
2021/05/11 00:51:05;;;;;;;1999.90;999.90;;;15.80;99.90;;;;;;5039151;28;20409;-80
2021/05/11 00:53:31;;;;;;;1999.90;999.90;;;15.80;99.90;;;;;;5021430;28;20698;-80
2021/05/11 00:55:57;;;;;;;1999.90;999.90;;;15.70;99.90;;;;;;5038108;28;20441;-80
2021/05/11 00:58:24;;;;;;;1999.90;999.90;;;15.80;99.90;;;;;;5038310;28;20483;-80
2021/05/11 01:00:50;;;;;;;1999.90;999.90;;;15.70;99.90;;;;;;5019938;28;20564;-78
2021/05/11 01:03:16;;;;;;;1999.90;999.90;;;15.80;99.90;;;;;;5038542;28;20895;-80
2021/05/11 01:05:41;;;;;;;1999.90;999.90;;;15.80;99.90;;;;;;5038779;28;20203;-80
2021/05/11 01:08:09;;;;;;;1999.90;999.90;;;15.90;99.90;;;;;;5037789;28;20519;-80
2021/05/11 01:10:35;;;;;;;1999.90;999.90;;;15.90;99.90;;;;;;5020992;28;20172;-79
2021/05/11 01:13:01;;;;;;;1999.90;999.90;;;15.80;99.90;;;;;;5038751;28;20495;-80
2021/05/11 01:15:27;;;;;;;1999.90;999.90;;;15.80;99.90;;;;;;5038186;28;20395;-80
2021/05/11 01:18:00;;;;;;;1999.90;999.90;;;15.80;99.90;;;;;;5038223;28;20761;-80
2021/05/11 01:20:32;;;;;;;1999.90;999.90;;;15.70;99.90;;;;;;5038148;28;20963;-78
2021/05/11 01:25:44;;;;;;;1999.90;999.90;;;15.70;99.90;;;;;;5037701;28;20481;-80
2021/05/11 01:47:16;;;;;;;1999.90;999.90;;;15.60;99.90;;;;;;5038372;28;20398;-80
2021/05/11 01:53:01;;;;;;;1999.90;999.90;;;15.60;99.90;;;;;;5038790;28;20396;-81
2021/05/11 02:25:05;;;;;;;1999.90;999.90;;;15.50;99.90;;;;;;5041511;28;20386;-80
2021/05/11 02:27:31;;;;;;;1999.90;999.90;;;15.50;99.90;;;;;;5023125;28;20433;-80
2021/05/11 02:29:56;;;;;;;1999.90;999.90;;;15.50;99.90;;;;;;5042003;28;20504;-81
2021/05/11 02:32:22;;;;;;;1999.90;999.90;;;15.40;99.90;;;;;;5041738;28;20458;-81
2021/05/11 02:34:48;;;;;;;1999.90;999.90;;;15.40;99.90;;;;;;5023207;28;20171;-81
2021/05/11 02:37:14;;;;;;;1999.90;999.90;;;15.40;99.90;;;;;;5023029;28;20255;-80
2021/05/11 02:39:39;;;;;;;1999.90;999.90;;;15.40;99.90;;;;;;5041021;28;20163;-79
2021/05/11 02:42:06;;;;;;;1999.90;999.90;;;15.40;99.90;;;;;;5040814;28;20254;-78
2021/05/11 02:44:39;;;;;;;1999.90;999.90;;;15.40;99.90;;;;;;5040970;28;20696;-81
2021/05/11 02:47:05;;;;;;;1999.90;999.90;;;15.30;99.90;;;;;;5040803;28;20404;-79
2021/05/11 02:49:31;;;;;;;1999.90;999.90;;;15.30;99.90;;;;;;5023161;28;20401;-81
2021/05/11 02:51:56;;;;;;;1999.90;999.90;;;15.30;99.90;;;;;;5040722;28;20248;-79
2021/05/11 02:54:22;;;;;;;1999.90;999.90;;;15.40;99.90;;;;;;5040863;28;20164;-80
2021/05/11 02:56:47;;;;;;;1999.90;999.90;;;15.40;99.90;;;;;;5040787;28;20663;-79
2021/05/11 02:59:13;;;;;;;1999.90;999.90;;;15.40;99.90;;;;;;5040080;28;20175;-80
2021/05/11 03:01:39;;;;;;;1999.90;999.90;;;15.30;99.90;;;;;;5040677;28;20170;-80
2021/05/11 03:04:05;;;;;;;1999.90;999.90;;;15.30;99.90;;;;;;5040949;28;20170;-79
2021/05/11 03:06:30;;;;;;;1999.90;999.90;;;15.30;99.90;;;;;;5023256;28;20543;-79
2021/05/11 03:08:56;;;;;;;1999.90;999.90;;;15.20;99.90;;;;;;5040637;28;20195;-80
2021/05/11 03:11:21;;;;;;;1999.90;999.90;;;15.30;99.90;;;;;;5040586;28;20179;-80
2021/05/11 03:13:47;;;;;;;1999.90;999.90;;;15.30;99.90;;;;;;5040911;28;20538;-79
2021/05/11 03:16:13;;;;;;;1999.90;999.90;;;15.40;99.90;;;;;;5040669;28;20595;-80
2021/05/11 03:18:38;;;;;;;1999.90;999.90;;;15.40;99.90;;;;;;5040473;28;20187;-81
2021/05/11 03:21:04;;;;;;;1999.90;999.90;;;15.40;99.90;;;;;;5040837;28;20168;-80
2021/05/11 03:23:30;;;;;;;1999.90;999.90;;;15.40;99.90;;;;;;5040493;28;20169;-80
2021/05/11 03:25:55;;;;;;;1999.90;999.90;;;15.40;99.90;;;;;;5040790;28;20634;-80
2021/05/11 03:28:21;;;;;;;1999.90;999.90;;;15.40;99.90;;;;;;5039875;28;20190;-79
2021/05/11 03:30:47;;;;;;;1999.90;999.90;;;15.50;99.90;;;;;;5021747;28;20170;-81
2021/05/11 03:33:12;;;;;;;1999.90;999.90;;;15.50;99.90;;;;;;5040070;28;20194;-79
2021/05/11 03:35:38;;;;;;;1999.90;999.90;;;15.40;99.90;;;;;;5040167;28;20432;-80
2021/05/11 03:38:06;;;;;;;1999.90;999.90;;;15.40;99.90;;;;;;5039974;28;20218;-80
2021/05/11 03:40:31;;;;;;;1999.90;999.90;;;15.40;99.90;;;;;;5040375;28;20165;-79
2021/05/11 03:43:16;;;;;;;1999.90;999.90;;;15.30;99.90;;;;;;5022318;28;20939;-81
2021/05/11 03:45:47;;;;;;;1999.90;999.90;;;15.40;99.90;;;;;;5039917;28;20546;-81
2021/05/11 03:48:13;;;;;;;1999.90;999.90;;;15.40;99.90;;;;;;5022190;28;20504;-81
2021/05/11 03:50:39;;;;;;;1999.90;999.90;;;15.40;99.90;;;;;;5040207;28;20444;-81
2021/05/11 03:53:04;;;;;;;1999.90;999.90;;;15.40;99.90;;;;;;5040022;28;20208;-80
2021/05/11 03:55:30;;;;;;;1999.90;999.90;;;15.40;99.90;;;;;;5023012;28;20158;-81
2021/05/11 03:57:56;;;;;;;1999.90;999.90;;;15.30;99.90;;;;;;5040536;28;20218;-80
2021/05/11 04:00:22;;;;;;;1999.90;999.90;;;15.30;99.90;;;;;;5040376;28;20186;-80
2021/05/11 04:02:47;;;;;;;1999.90;999.90;;;15.30;99.90;;;;;;5040767;28;20251;-81
2021/05/11 04:05:15;;;;;;;1999.90;999.90;;;15.40;99.90;;;;;;5023201;28;20434;-80
2021/05/11 04:07:42;;;;;;;1999.90;999.90;;;15.50;99.90;;;;;;5040293;28;20198;-81
2021/05/11 04:10:51;;;;;;;1999.90;999.90;;;15.40;99.90;;;;;;5039670;28;20493;-80
2021/05/11 04:18:07;;;;;;;1999.90;999.90;;;15.30;99.90;;;;;;5040295;28;20252;-81
2021/05/11 04:20:33;;;;;;;1999.90;999.90;;;15.20;99.90;;;;;;5039910;28;20402;-80
2021/05/11 04:22:59;;;;;;;1999.90;999.90;;;15.20;99.90;;;;;;5039363;28;20870;-79
2021/05/11 04:25:25;;;;;;;1999.90;999.90;;;15.20;99.90;;;;;;5039730;28;20189;-81
2021/05/11 04:27:50;;;;;;;1999.90;999.90;;;15.20;99.90;;;;;;5039313;28;20196;-81
2021/05/11 04:30:18;;;;;;;1999.90;999.90;;;15.30;99.90;;;;;;5039664;28;20397;-80
2021/05/11 04:32:44;;;;;;;1999.90;999.90;;;15.40;99.90;;;;;;5039782;28;20179;-80
2021/05/11 04:35:10;;;;;;;1999.90;999.90;;;15.40;99.90;;;;;;5039853;28;20405;-80
2021/05/11 04:37:36;;;;;;;1999.90;999.90;;;15.40;99.90;;;;;;5038761;28;20208;-80
2021/05/11 04:40:03;;;;;;;1999.90;999.90;;;15.30;99.90;;;;;;5039162;28;20416;-80
2021/05/11 04:42:29;;;;;;;1999.90;999.90;;;15.40;99.90;;;;;;5038270;28;20199;-80
2021/05/11 04:44:56;;;;;;;1999.90;999.90;;;15.40;99.90;;;;;;5039107;28;20417;-79
2021/05/11 04:47:29;;;;;;;1999.90;999.90;;;15.40;99.90;;;;;;5021121;28;20288;-80
2021/05/11 04:49:57;;;;;;;1999.90;999.90;;;15.40;99.90;;;;;;5021844;28;20417;-79
2021/05/11 04:52:23;;;;;;;1999.90;999.90;;;15.40;99.90;;;;;;5020894;28;20418;-79
2021/05/11 04:54:48;;;;;;;1999.90;999.90;;;15.40;99.90;;;;;;5038651;28;20421;-81
2021/05/11 04:57:14;;;;;;;1999.90;999.90;;;15.40;99.90;;;;;;5039199;28;20205;-80
2021/05/11 04:59:40;;;;;;;1999.90;999.90;;;15.30;99.90;;;;;;5038303;28;20166;-79
2021/05/11 05:02:05;;;;;;;1999.90;999.90;;;15.10;99.90;;;;;;5039063;28;20185;-80
2021/05/11 05:04:34;;;;;;;1999.90;999.90;;;15.10;99.90;;;;;;5020921;28;20293;-80
2021/05/11 05:07:00;;;;;;;1999.90;999.90;;;15.20;99.90;;;;;;5107295;22;20217;-80
2021/05/11 05:09:26;;;;;;;1999.90;999.90;;;15.30;99.90;;;;;;5038397;28;20397;-80
2021/05/11 05:11:51;;;;;;;1999.90;999.90;;;15.30;99.90;;;;;;5037768;28;20645;-80
2021/05/11 05:14:17;;;;;;;1999.90;999.90;;;15.30;99.90;;;;;;5038174;28;20201;-80
2021/05/11 05:16:43;;;;;;;1999.90;999.90;;;15.30;99.90;;;;;;5037695;28;20182;-79
2021/05/11 05:19:08;;;;;;;1999.90;999.90;;;15.40;99.90;;;;;;5037998;28;20187;-80
2021/05/11 05:21:35;;;;;;;1999.90;999.90;;;15.50;99.90;;;;;;5037716;28;20587;-80
2021/05/11 05:24:07;;;;;;;1999.90;999.90;;;15.50;99.90;;;;;;5037641;28;20648;-80
2021/05/11 05:26:33;;;;;;;1999.90;999.90;;;15.50;99.90;;;;;;5019992;28;20486;-80
2021/05/11 05:28:59;;;;;;;1999.90;999.90;;;15.50;99.90;;;;;;5037684;28;20428;-80
2021/05/11 05:31:25;;;;;;;1999.90;999.90;;;15.60;99.90;;;;;;5019808;28;20170;-80
2021/05/11 05:33:50;;;;;;;1999.90;999.90;;;15.50;99.90;;;;;;5019664;28;20421;-79
2021/05/11 05:36:16;;;;;;;1999.90;999.90;;;15.40;99.90;;;;;;5037214;28;20214;-80
2021/05/11 05:38:42;;;;;;;1999.90;999.90;;;15.40;99.90;;;;;;5037278;28;20193;-80
2021/05/11 05:41:19;;;;;;;1999.90;999.90;;;15.40;99.90;;;;;;5037589;28;20159;-80
2021/05/11 05:43:44;;;;;;;1999.90;999.90;;;15.40;99.90;;;;;;5021009;28;20896;-80
2021/05/11 05:46:10;;;;;;;1999.90;999.90;;;15.50;99.90;;;;;;5037634;28;20414;-80
2021/05/11 05:48:36;;;;;;;1999.90;999.90;;;15.50;99.90;;;;;;5037581;28;20187;-80
2021/05/11 05:51:03;;;;;;;1999.90;999.90;;;15.50;99.90;;;;;;5037706;28;20174;-80
2021/05/11 05:53:40;;;;;;;1999.90;999.90;;;15.60;99.90;;;;;;5038246;28;20169;-80
2021/05/11 05:56:07;;;;;;;1999.90;999.90;;;15.80;99.90;;;;;;5022143;28;20438;-80
2021/05/11 05:58:33;;;;;;;1999.90;999.90;;;15.90;99.90;;;;;;5039032;28;20503;-80
2021/05/11 06:01:06;;;;;;;1999.90;999.90;;;15.90;99.90;;;;;;5036902;28;20424;-80
2021/05/11 06:04:06;;;;;;;1999.90;999.90;;;16.00;99.90;;;;;;5037464;28;20382;-79
2021/05/11 06:06:25;;;;;;;1999.90;999.90;;;16.00;99.90;;;;;;5035215;28;20410;-79
2021/05/11 06:08:51;;;;;;;1999.90;999.90;;;16.00;99.90;;;;;;5037494;28;20435;-80
2021/05/11 06:19:01;;;;;;;1999.90;999.90;;;16.00;99.90;;;;;;5037330;28;20425;-79
2021/05/11 06:21:27;;;;;;;1999.90;999.90;;;16.00;99.90;;;;;;5036873;28;20437;-78
2021/05/11 06:23:53;;;;;;;1999.90;999.90;;;16.00;99.90;;;;;;5037189;28;20406;-80
2021/05/11 06:26:19;;;;;;;1999.90;999.90;;;16.00;99.90;;;;;;5019859;28;20170;-78
2021/05/11 06:28:45;;;;;;;1999.90;999.90;;;16.00;99.90;;;;;;5037080;28;20206;-80
2021/05/11 06:31:11;;;;;;;1999.90;999.90;;;16.00;99.90;;;;;;5019857;28;20417;-79
2021/05/11 06:33:37;;;;;;;1999.90;999.90;;;16.00;99.90;;;;;;5037511;28;20504;-80
2021/05/11 06:36:04;;;;;;;1999.90;999.90;;;15.90;99.90;;;;;;5036837;28;20674;-81
2021/05/11 06:38:30;;;;;;;1999.90;999.90;;;16.00;99.90;;;;;;5036715;28;20435;-80
2021/05/11 06:40:56;;;;;;;1999.90;999.90;;;16.00;99.90;;;;;;5036688;28;20437;-80
2021/05/11 06:43:27;;;;;;;1999.90;999.90;;;16.00;99.90;;;;;;5037002;28;20416;-80
2021/05/11 06:49:03;;;;;;;1999.90;999.90;;;16.10;99.90;;;;;;5036557;28;20516;-80
2021/05/11 06:53:55;;;;;;;1999.90;999.90;;;16.20;99.90;;;;;;5036611;28;20413;-80
2021/05/11 06:56:21;;;;;;;1999.90;999.90;;;16.30;99.90;;;;;;5018506;28;20220;-77
2021/05/11 06:58:47;;;;;;;1999.90;999.90;;;16.30;99.90;;;;;;5018180;28;20435;-80
2021/05/11 07:01:21;;;;;;;1999.90;999.90;;;16.30;99.90;;;;;;5018811;28;20409;-80
2021/05/11 07:03:47;;;;;;;1999.90;999.90;;;16.40;99.90;;;;;;5018288;28;20491;-79
2021/05/11 07:06:14;;;;;;;1999.90;999.90;;;16.40;99.90;;;;;;5021161;28;20416;-81
2021/05/11 07:08:44;;;;;;;1999.90;999.90;;;16.50;99.90;;;;;;5040414;28;20457;-79
2021/05/11 07:13:06;;;;;;;1999.90;999.90;;;16.50;99.90;;;;;;5022258;28;20458;-80
2021/05/11 07:13:58;;;;;;;1999.90;999.90;;;16.60;99.90;;;;;;5038134;28;20414;-79
2021/05/11 07:16:23;;;;;;;1999.90;999.90;;;16.60;99.90;;;;;;5039460;28;20549;-80
2021/05/11 07:18:49;;;;;;;1999.90;999.90;;;16.60;99.90;;;;;;5040307;28;20189;-78
2021/05/11 07:21:15;;;;;;;1999.90;999.90;;;16.70;99.90;;;;;;5039416;28;20559;-80
2021/05/11 07:23:40;;;;;;;1999.90;999.90;;;16.70;99.90;;;;;;5039985;28;20570;-79
2021/05/11 07:31:24;;;;;;;1999.90;999.90;;;17.00;99.90;;;;;;5040497;28;20386;-80
2021/05/11 07:33:51;;;;;;;1999.90;999.90;;;17.10;99.90;;;;;;5040534;28;20420;-80
2021/05/11 07:36:18;;;;;;;1999.90;999.90;;;17.10;99.90;;;;;;5022328;28;20204;-80
2021/05/11 07:38:45;;;;;;;1999.90;999.90;;;17.10;99.90;;;;;;5040077;28;20448;-80
2021/05/11 07:41:13;;;;;;;1999.90;999.90;;;17.10;99.90;;;;;;5022983;28;20408;-80
2021/05/11 07:43:41;;;;;;;1999.90;999.90;;;16.90;99.90;;;;;;5023279;28;20423;-80
2021/05/11 07:49:07;;;;;;;1999.90;999.90;;;16.80;99.90;;;;;;5040344;28;20514;-80
2021/05/11 08:04:58;;;;;;;1999.90;999.90;;;16.90;99.90;;;;;;5038778;28;20903;-79
2021/05/11 08:17:51;;;;;;;1999.90;999.90;;;17.10;99.90;;;;;;5039070;28;20466;-79
2021/05/11 08:28:01;;;;;;;1999.90;999.90;;;17.00;99.90;;;;;;5019041;28;20210;-78
2021/05/11 08:30:28;;;;;;;1999.90;999.90;;;16.90;99.90;;;;;;5038894;28;20808;-80
2021/05/11 08:32:54;;;;;;;1999.90;999.90;;;16.90;99.90;;;;;;5021783;28;20505;-78
2021/05/11 08:35:21;;;;;;;1999.90;999.90;;;16.80;99.90;;;;;;5038919;28;20472;-79
2021/05/11 08:37:47;;;;;;;1999.90;999.90;;;16.80;99.90;;;;;;5021328;28;20470;-79
2021/05/11 08:40:13;;;;;;;1999.90;999.90;;;16.70;99.90;;;;;;5038161;28;20888;-78
2021/05/11 08:42:39;;;;;;;1999.90;999.90;;;16.80;99.90;;;;;;5037951;28;20165;-79
2021/05/11 08:45:10;;;;;;;1999.90;999.90;;;16.80;99.90;;;;;;5037730;28;20482;-78
2021/05/11 08:47:48;;;;;;;1999.90;999.90;;;16.90;99.90;;;;;;5037510;28;20322;-80
2021/05/11 08:50:15;;;;;;;1999.90;999.90;;;17.00;99.90;;;;;;5038252;28;20392;-79
2021/05/11 08:53:00;;;;;;;1999.90;999.90;;;17.00;99.90;;;;;;5038062;28;20408;-80
2021/05/11 08:59:53;;;;;;;1999.90;999.90;;;17.10;99.90;;;;;;5021453;28;20404;-80
2021/05/11 09:09:44;;;;;;;1999.90;999.90;;;17.50;99.90;;;;;;5041055;28;20408;-78
2021/05/11 09:15:44;;;;;;;1999.90;999.90;;;17.90;99.90;;;;;;5041341;28;20502;-78
2021/05/11 09:26:57;;;;;;;1999.90;999.90;;;18.50;99.90;;;;;;5041377;28;20438;-78
2021/05/11 09:32:14;;;;;;;1999.90;999.90;;;18.50;99.90;;;;;;5041348;28;20824;-79
2021/05/11 09:54:34;;;;;;;1999.90;999.90;;;19.00;99.90;;;;;;5037993;28;20423;-80
2021/05/11 10:49:37;;;;;;;1999.90;999.90;;;19.80;99.90;;;;;;5040616;28;20400;-80
2021/05/11 10:52:19;;;;;;;1999.90;999.90;;;19.90;99.90;;;;;;5040070;28;20396;-80
2021/05/11 10:55:08;;;;;;;1999.90;999.90;;;19.40;99.90;;;;;;5022932;28;20416;-79
2021/05/11 11:03:12;;;;;;;1999.90;999.90;;;19.40;99.90;;;;;;5030051;28;20419;-80
2021/05/11 11:05:41;;;;;;;1999.90;999.90;;;19.20;99.90;;;;;;5040518;28;20439;-80
2021/05/11 11:08:28;;;;;;;1999.90;999.90;;;19.10;99.90;;;;;;5110225;22;20483;-81
2021/05/11 11:11:21;;;;;;;1999.90;999.90;;;19.10;99.90;;;;;;5042859;28;20401;-81
2021/05/11 11:13:51;;;;;;;1999.90;999.90;;;19.10;99.90;;;;;;5040183;28;20400;-83
2021/05/11 11:16:18;;;;;;;1999.90;999.90;;;18.60;99.90;;;;;;5042905;28;20954;-81
2021/05/11 11:18:45;;;;;;;1999.90;999.90;;;18.50;99.90;;;;;;5042654;28;20432;-81
2021/05/11 11:23:52;;;;;;;1999.90;999.90;;;18.10;99.90;;;;;;5041871;28;20415;-81
2021/05/11 11:26:32;;;;;;;1999.90;999.90;;;18.10;99.90;;;;;;5042728;28;20406;-81
2021/05/11 11:29:00;;;;;;;1999.90;999.90;;;18.00;99.90;;;;;;5042882;28;20489;-81
2021/05/11 11:31:45;;;;;;;1999.90;999.90;;;18.10;99.90;;;;;;5043370;28;20405;-81
2021/05/11 11:34:19;;;;;;;1999.90;999.90;;;18.20;99.90;;;;;;5042721;28;20772;-82
2021/05/11 11:37:00;;;;;;;1999.90;999.90;;;18.10;99.90;;;;;;5025249;28;20454;-81
2021/05/11 11:39:29;;;;;;;1999.90;999.90;;;18.10;99.90;;;;;;5043373;28;20884;-81
2021/05/11 11:42:00;;;;;;;1999.90;999.90;;;18.10;99.90;;;;;;5025266;28;20942;-81
2021/05/11 11:44:31;;;;;;;1999.90;999.90;;;18.10;99.90;;;;;;5043529;28;20464;-81
2021/05/11 11:46:56;;;;;;;1999.90;999.90;;;18.10;99.90;;;;;;5024730;28;20425;-81
2021/05/11 11:49:29;;;;;;;1999.90;999.90;;;18.10;99.90;;;;;;5042390;28;20430;-81
2021/05/11 11:52:02;;;;;;;1999.90;999.90;;;18.00;99.90;;;;;;5041574;28;20209;-81
2021/05/11 11:54:38;;;;;;;1999.90;999.90;;;18.00;99.90;;;;;;5041932;28;20393;-81
2021/05/11 12:00:01;;;;;;;1999.90;999.90;;;17.90;99.90;;;;;;5041159;28;20391;-81
2021/05/11 12:02:31;;;;;;;1999.90;999.90;;;17.80;99.90;;;;;;5041086;28;20494;-81
2021/05/11 12:05:08;;;;;;;1999.90;999.90;;;17.80;99.90;;;;;;5023569;28;20188;-81
2021/05/11 12:10:22;;;;;;;1999.90;999.90;;;17.90;99.90;;;;;;5041808;28;20894;-81
2021/05/11 12:12:48;;;;;;;1999.90;999.90;;;17.90;99.90;;;;;;5041389;28;20404;-81
2021/05/11 12:15:21;;;;;;;1999.90;999.90;;;17.90;99.90;;;;;;5041948;28;20464;-81
2021/05/11 12:20:40;;;;;;;1999.90;999.90;;;18.00;99.90;;;;;;5041354;28;20415;-81
2021/05/11 12:23:16;;;;;;;1999.90;999.90;;;18.00;99.90;;;;;;5041016;28;20408;-81
2021/05/11 12:25:43;;;;;;;1999.90;999.90;;;17.80;99.90;;;;;;5023685;28;20473;-82
2021/05/11 12:28:10;;;;;;;1999.90;999.90;;;17.90;99.90;;;;;;5023744;28;20522;-82
2021/05/11 12:30:42;;;;;;;1999.90;999.90;;;17.90;99.90;;;;;;5041411;28;20420;-82
2021/05/11 12:33:13;;;;;;;1999.90;999.90;;;18.10;99.90;;;;;;5042008;28;20400;-82
2021/05/11 12:35:43;;;;;;;1999.90;999.90;;;18.10;99.90;;;;;;5023752;28;20412;-82
2021/05/11 12:38:21;;;;;;;1999.90;999.90;;;18.10;99.90;;;;;;5024048;28;20460;-82
2021/05/11 12:41:06;;;;;;;1999.90;999.90;;;18.00;99.90;;;;;;5041908;28;20447;-82
2021/05/11 12:43:45;;;;;;;1999.90;999.90;;;18.00;99.90;;;;;;5023657;28;20415;-82
2021/05/11 12:46:20;;;;;;;1999.90;999.90;;;18.00;99.90;;;;;;5041985;28;20498;-82
2021/05/11 12:49:03;;;;;;;1999.90;999.90;;;18.00;99.90;;;;;;5041391;28;20423;-82
2021/05/11 12:51:34;;;;;;;1999.90;999.90;;;18.10;99.90;;;;;;5023972;28;20412;-82
2021/05/11 12:54:03;;;;;;;1999.90;999.90;;;18.10;99.90;;;;;;5041883;28;20388;-82
2021/05/11 12:56:48;;;;;;;1999.90;999.90;;;18.20;99.90;;;;;;5023430;28;20448;-82
2021/05/11 12:59:25;;;;;;;1999.90;999.90;;;18.10;99.90;;;;;;5042715;28;20399;-82
2021/05/11 13:02:06;;;;;;;1999.90;999.90;;;18.20;99.90;;;;;;5040818;28;20463;-82
2021/05/11 13:05:03;;;;;;;1999.90;999.90;;;18.00;99.90;;;;;;5039442;28;20472;-82
2021/05/11 13:28:29;;;;;;;1999.90;999.90;;;18.10;99.90;;;;;;5039021;28;20428;-81
2021/05/11 13:30:59;;;;;;;1999.90;999.90;;;18.20;99.90;;;;;;5021767;28;20165;-81
2021/05/11 13:33:32;;;;;;;1999.90;999.90;;;18.10;99.90;;;;;;5039682;28;20480;-83
2021/05/11 13:35:57;;;;;;;1999.90;999.90;;;18.10;99.90;;;;;;5039959;28;20795;-81
2021/05/11 13:38:23;;;;;;;1999.90;999.90;;;18.10;99.90;;;;;;5021431;28;20481;-81
2021/05/11 13:40:52;;;;;;;1999.90;999.90;;;18.10;99.90;;;;;;5039380;28;20219;-82
2021/05/11 13:43:18;;;;;;;1999.90;999.90;;;18.00;99.90;;;;;;5020760;28;20165;-81
2021/05/11 13:45:44;;;;;;;1999.90;999.90;;;17.90;99.90;;;;;;5038569;28;20945;-81
2021/05/11 13:53:26;;;;;;;1999.90;999.90;;;17.80;99.90;;;;;;5039145;28;20392;-81
2021/05/11 14:04:06;;;;;;;1999.90;999.90;;;17.80;99.90;;;;;;5038979;28;20740;-82
2021/05/11 14:06:32;;;;;;;1999.90;999.90;;;17.80;99.90;;;;;;5039252;28;20495;-82
2021/05/11 14:09:17;;;;;;;1999.90;999.90;;;17.90;99.90;;;;;;5038690;28;20471;-82
2021/05/11 14:11:45;;;;;;;1999.90;999.90;;;17.80;99.90;;;;;;5038514;28;20146;-82
2021/05/11 14:14:14;;;;;;;1999.90;999.90;;;17.80;99.90;;;;;;5039067;28;20400;-82
2021/05/11 14:16:45;;;;;;;1999.90;999.90;;;17.70;99.90;;;;;;5020358;28;20543;-82
2021/05/11 14:19:27;;;;;;;1999.90;999.90;;;17.60;99.90;;;;;;5021010;28;20815;-81
2021/05/11 14:21:57;;;;;;;1999.90;999.90;;;17.50;99.90;;;;;;5021925;28;20422;-82
2021/05/11 14:24:26;;;;;;;1999.90;999.90;;;17.60;99.90;;;;;;5021233;28;20422;-82
2021/05/11 14:26:55;;;;;;;1999.90;999.90;;;17.60;99.90;;;;;;5021917;28;20776;-82
2021/05/11 14:29:24;;;;;;;1999.90;999.90;;;17.60;99.90;;;;;;5021852;28;20764;-83
2021/05/11 14:31:53;;;;;;;1999.90;999.90;;;17.60;99.90;;;;;;5039427;28;20408;-81
2021/05/11 14:34:21;;;;;;;1999.90;999.90;;;17.60;99.90;;;;;;5022161;28;20772;-83
2021/05/11 14:36:50;;;;;;;1999.90;999.90;;;17.60;99.90;;;;;;5021717;28;20457;-83
2021/05/11 14:39:16;;;;;;;1999.90;999.90;;;17.60;99.90;;;;;;5041178;28;20407;-83
2021/05/11 14:41:41;;;;;;;1999.90;999.90;;;17.60;99.90;;;;;;5022935;28;20949;-83
2021/05/11 14:44:10;;;;;;;1999.90;999.90;;;17.60;99.90;;;;;;5022443;28;20202;-83
2021/05/11 14:46:36;;;;;;;1999.90;999.90;;;17.70;99.90;;;;;;5039961;28;20652;-83
2021/05/11 14:49:03;;;;;;;1999.90;999.90;;;17.60;99.90;;;;;;5024042;28;20436;-83
2021/05/11 14:51:29;;;;;;;1999.90;999.90;;;17.60;99.90;;;;;;5022523;28;20418;-83
2021/05/11 14:53:55;;;;;;;1999.90;999.90;;;17.60;99.90;;;;;;5040987;28;20479;-83
2021/05/11 14:56:20;;;;;;;1999.90;999.90;;;17.70;99.90;;;;;;5041858;28;20448;-83
2021/05/11 14:58:49;;;;;;;1999.90;999.90;;;17.80;99.90;;;;;;5022610;28;20197;-83
2021/05/11 15:01:15;;;;;;;1999.90;999.90;;;17.80;99.90;;;;;;5022072;28;20438;-83
2021/05/11 15:03:40;;;;;;;1999.90;999.90;;;17.80;99.90;;;;;;5040283;28;20403;-83
2021/05/11 15:06:06;;;;;;;1999.90;999.90;;;17.90;99.90;;;;;;5039803;28;20161;-83
2021/05/11 15:08:32;;;;;;;1999.90;999.90;;;17.80;99.90;;;;;;5039354;28;20280;-83
2021/05/11 15:10:58;;;;;;;1999.90;999.90;;;17.70;99.90;;;;;;5039805;28;20412;-83
2021/05/11 15:13:24;;;;;;;1999.90;999.90;;;17.70;99.90;;;;;;5021975;28;20826;-83
2021/05/11 15:15:51;;;;;;;1999.90;999.90;;;17.50;99.90;;;;;;5021782;28;20170;-83
2021/05/11 15:18:17;;;;;;;1999.90;999.90;;;17.50;99.90;;;;;;5039371;28;20309;-83
2021/05/11 15:20:44;;;;;;;1999.90;999.90;;;17.60;99.90;;;;;;5039350;28;20737;-83
2021/05/11 15:23:13;;;;;;;1999.90;999.90;;;17.60;99.90;;;;;;5021472;28;20630;-83
2021/05/11 15:25:42;;;;;;;1999.90;999.90;;;17.70;99.90;;;;;;5039667;28;20407;-83
2021/05/11 15:28:08;;;;;;;1999.90;999.90;;;17.60;99.90;;;;;;5041189;28;20420;-82
2021/05/11 15:30:35;;;;;;;1999.90;999.90;;;17.60;99.90;;;;;;5024875;28;20869;-82
2021/05/11 15:33:02;;;;;;;1999.90;999.90;;;17.60;99.90;;;;;;5043425;28;20656;-83
2021/05/11 15:35:31;;;;;;;1999.90;999.90;;;17.60;99.90;;;;;;5043234;28;20412;-83
2021/05/11 15:38:05;;;;;;;1999.90;999.90;;;17.50;99.90;;;;;;5043235;28;20443;-83
2021/05/11 15:40:36;;;;;;;1999.90;999.90;;;17.60;99.90;;;;;;5024957;28;20431;-83
2021/05/11 15:43:04;;;;;;;1999.90;999.90;;;17.60;99.90;;;;;;5043161;28;20403;-83
2021/05/11 15:45:29;;;;;;;1999.90;999.90;;;17.60;99.90;;;;;;5043067;28;20590;-84
2021/05/11 15:47:56;;;;;;;1999.90;999.90;;;17.50;99.90;;;;;;5043582;28;20428;-82
2021/05/11 15:50:39;;;;;;;1999.90;999.90;;;17.50;99.90;;;;;;5043073;28;20411;-82
2021/05/11 15:53:07;;;;;;;1999.90;999.90;;;17.40;99.90;;;;;;5043144;28;20407;-82
2021/05/11 15:55:36;;;;;;;1999.90;999.90;;;17.30;99.90;;;;;;5042983;28;20404;-83
2021/05/11 15:58:01;;;;;;;1999.90;999.90;;;17.30;99.90;;;;;;5042279;28;20550;-82
2021/05/11 16:00:28;;;;;;;1999.90;999.90;;;17.30;99.90;;;;;;5024321;28;20452;-82
2021/05/11 16:02:55;;;;;;;1999.90;999.90;;;17.20;99.90;;;;;;5024427;28;20470;-83
2021/05/11 16:05:22;;;;;;;1999.90;999.90;;;17.20;99.90;;;;;;5042064;28;20408;-83
2021/05/11 16:07:49;;;;;;;1999.90;999.90;;;17.20;99.90;;;;;;5042620;28;20973;-82
2021/05/11 16:10:16;;;;;;;1999.90;999.90;;;17.20;99.90;;;;;;5042755;28;20404;-82
2021/05/11 16:12:42;;;;;;;1999.90;999.90;;;17.10;99.90;;;;;;5042799;28;20933;-82
2021/05/11 16:15:12;;;;;;;1999.90;999.90;;;17.10;99.90;;;;;;5042922;28;20490;-83
2021/05/11 16:17:39;;;;;;;1999.90;999.90;;;17.10;99.90;;;;;;5043090;28;20447;-82
2021/05/11 16:20:07;;;;;;;1999.90;999.90;;;17.10;99.90;;;;;;5026684;28;20513;-82
2021/05/11 16:22:36;;;;;;;1999.90;999.90;;;17.10;99.90;;;;;;5043448;28;20400;-82
2021/05/11 16:25:03;;;;;;;1999.90;999.90;;;17.10;99.90;;;;;;5026125;28;20435;-82
2021/05/11 16:27:29;;;;;;;1999.90;999.90;;;17.10;99.90;;;;;;5025987;28;20430;-82
2021/05/11 16:29:55;;;;;;;1999.90;999.90;;;17.10;99.90;;;;;;5029487;28;20448;-82